createdAt,value
2023-03-26T00:12:06.468Z,418
2023-03-26T00:32:06.545Z,429
2023-03-26T00:52:06.566Z,436
2023-03-26T01:12:06.623Z,451
2023-03-26T01:32:13.647Z,481
2023-03-26T01:52:06.663Z,514
2023-03-26T02:12:13.735Z,535
2023-03-26T02:52:06.946Z,524
2023-03-26T03:12:06.796Z,504
2023-03-26T03:32:13.874Z,486
2023-03-26T03:52:06.916Z,479
2023-03-26T04:12:06.939Z,469
2023-03-26T04:32:07.097Z,460
2023-03-26T04:52:07.011Z,458
2023-03-26T05:12:07.043Z,458
2023-03-26T05:32:07.077Z,452
2023-03-26T05:52:07.115Z,446
2023-03-26T06:12:07.158Z,446
2023-03-26T06:32:18.834Z,439
2023-03-26T06:52:07.234Z,440
2023-03-26T07:12:07.274Z,434
2023-03-26T07:32:07.413Z,436
2023-03-26T08:12:07.371Z,434
2023-03-26T08:32:07.324Z,431
2023-03-26T08:52:07.243Z,431
2023-03-26T09:32:07.521Z,433
2023-03-26T09:52:07.555Z,437
2023-03-26T10:12:07.678Z,436
2023-03-26T10:32:07.693Z,441
2023-03-26T10:52:07.701Z,447
2023-03-26T11:12:25.979Z,447
2023-03-26T11:32:07.742Z,452
2023-03-26T11:52:07.801Z,455
2023-03-26T12:12:07.821Z,468
2023-03-26T12:32:07.857Z,477
2023-03-26T12:52:09.342Z,489
2023-03-26T13:12:07.891Z,503
2023-03-26T13:32:07.964Z,513
2023-03-26T13:52:07.994Z,522
2023-03-26T14:12:08.005Z,527
2023-03-26T14:32:08.027Z,525
2023-03-26T14:52:08.096Z,519
2023-03-26T15:12:11.974Z,511
2023-03-26T15:32:08.169Z,506
2023-03-26T15:52:08.189Z,505
2023-03-26T16:12:08.264Z,494
2023-03-26T16:32:08.215Z,493
2023-03-26T17:12:08.311Z,485
2023-03-26T17:32:08.349Z,482
2023-03-26T17:52:08.430Z,483
2023-03-26T18:12:08.451Z,482
2023-03-26T18:32:08.386Z,476
2023-03-26T18:52:08.513Z,476
2023-03-26T19:12:08.603Z,472
2023-03-26T19:32:08.568Z,476
2023-03-26T19:52:08.607Z,473
2023-03-26T20:12:08.644Z,470
2023-03-26T20:32:08.691Z,474
2023-03-26T20:52:08.696Z,471
2023-03-26T21:12:08.800Z,471
2023-03-26T21:32:08.812Z,470
2023-03-26T21:52:08.843Z,468
2023-03-26T22:12:08.936Z,464
2023-03-26T22:32:08.954Z,462
2023-03-26T22:52:08.982Z,464
2023-03-26T23:12:09.029Z,461
2023-03-26T23:32:23.279Z,456
